Wetterstation:     Jahr:     Auswahl:
Download: tageswerte-hochheim-2021.csv
 
 
Datum
Temp. 2 m
Mittel
[⁰C]
Temp. 2 m
Maximum
[⁰C]
Temp. 2 m
Minimum
[⁰C]
rel. Feuchte
Mittel
[%]
Wind
Mittel
[m/s]
Regen
Summe
[mm]
Strahlung
Summe
[Wh/m²]
Bogrebe
Minimum
[⁰C]
01.01.2021 2,4 3,7 1,4 93,7 0,6 0,4 446,5 1,3
02.01.2021 2,3 4,0 0,4 84,2 0,6 0,0 507,6 -0,2
03.01.2021 1,9 3,5 0,1 86,4 0,8 1,2 246,0 -0,6
04.01.2021 1,7 2,7 0,6 90,6 1,2 1,4 231,4 0,5
05.01.2021 2,5 3,6 1,6 87,2 0,9 0,8 230,5 1,5
06.01.2021 2,7 3,9 1,1 88,3 1,0 1,7 443,4 1,0
07.01.2021 2,1 3,2 1,4 82,7 1,3 0,0 373,8 1,1
08.01.2021 2,1 3,4 1,0 84,6 1,6 0,0 560,5 0,5
09.01.2021 1,1 4,2 -1,1 80,9 0,8 0,0 947,4 -1,6
10.01.2021 -0,5 5,9 -4,3 81,7 0,3 0,0 1662,4 -5,1
11.01.2021 -1,5 2,6 -6,9 84,3 0,6 0,0 1559,6 -7,4
12.01.2021 2,5 4,5 -0,1 87,8 1,7 7,5 256,9 -1,1
13.01.2021 1,8 5,7 -2,6 82,3 1,3 0,0 1142,9 -3,6
14.01.2021 1,9 3,8 -0,4 75,9 1,4 0,0 621,6 -0,9
15.01.2021 0,8 3,0 -0,5 76,2 1,2 0,0 917,9 -0,9
16.01.2021 -0,2 1,4 -2,0 71,4 0,9 0,0 612,6 -2,0
17.01.2021 -0,7 1,3 -2,3 94,7 0,4 2,5 305,6 -2,4
18.01.2021 3,5 6,8 0,6 84,8 1,5 0,4 775,2 0,3
19.01.2021 3,2 4,7 -0,9 83,2 1,9 2,8 218,7 -1,6
20.01.2021 2,9 8,1 -2,2 83,5 0,3 0,0 760,0 -2,9
21.01.2021 7,6 9,6 4,1 76,7 1,8 1,5 674,4 2,9
22.01.2021 6,0 11,4 1,9 87,3 1,3 4,8 494,4 1,1
23.01.2021 3,1 5,4 -0,5 92,3 1,1 1,7 377,7 -1,1
24.01.2021 1,9 4,0 -0,5 86,6 2,5 5,3 629,0 -1,1
25.01.2021 0,9 2,7 -0,2 90,2 0,7 1,8 525,9 -0,4
26.01.2021 2,7 4,8 0,4 78,2 2,4 0,0 341,7 -0,2
27.01.2021 1,0 2,7 -0,5 94,2 0,7 2,4 361,8 -0,8
28.01.2021 5,6 11,6 1,7 93,8 1,3 14,4 303,8 1,5
29.01.2021 9,3 11,7 7,4 81,8 2,4 5,8 864,5 7,1
30.01.2021 3,7 8,8 0,3 90,7 2,3 9,0 507,2 0,2
31.01.2021 0,8 1,8 -0,2 86,2 2,1 1,1 579,7 -0,3
01.02.2021 3,0 4,5 1,4 96,5 1,4 3,5 537,8 1,3
02.02.2021 6,1 8,1 4,0 95,8 0,5 4,5 487,6 3,9
03.02.2021 9,5 13,0 6,6 93,8 1,3 15,6 507,8 6,0
04.02.2021 8,2 12,5 5,5 76,7 1,4 0,2 1914,6 4,9
05.02.2021 6,3 7,4 4,5 91,9 0,5 4,0 530,6 4,0
06.02.2021 5,0 6,6 2,9 95,2 2,5 10,9 225,8 2,9
07.02.2021 1,7 3,0 -1,9 94,4 2,3 4,4 316,6 -1,8
08.02.2021 -4,1 -2,1 -5,9 83,8 0,0 0,0 608,1 -6,0
09.02.2021 -6,6 -4,5 -9,1 72,0 0,0 0,0 1176,3 -9,3
10.02.2021 -6,6 -2,6 -9,7 69,2 0,6 0,0 2192,9 -9,8
11.02.2021 -4,2 0,5 -11,4 78,7 1,0 0,4 2214,8 -12,5
12.02.2021 -4,1 -0,3 -6,9 67,4 2,7 0,1 2701,6 -7,1
13.02.2021 -4,0 1,4 -7,8 63,4 2,4 0,0 2855,4 -8,0
14.02.2021 -2,0 4,0 -6,3 61,9 2,9 0,0 2798,4 -6,5
15.02.2021 -0,9 1,2 -4,5 69,0 1,2 1,0 763,0 -5,4
16.02.2021 3,5 10,3 0,3 87,3 0,3 2,2 1682,6 0,2
17.02.2021 6,3 12,0 0,9 86,4 1,0 0,1 1350,0 0,2
18.02.2021 3,4 8,9 -1,8 90,4 0,4 0,0 1432,1 -2,5
19.02.2021 5,6 11,9 -0,5 84,1 0,5 0,0 2261,0 -1,3
20.02.2021 6,7 16,3 -0,2 85,1 0,7 0,0 2752,6 -0,8
21.02.2021 8,4 18,8 -0,8 74,8 0,8 0,0 3103,1 -1,7
22.02.2021 7,5 12,8 2,3 77,9 1,1 0,0 2560,5 1,4
23.02.2021 9,3 18,9 2,5 81,3 0,4 0,0 2760,1 1,8
24.02.2021 9,4 19,0 2,2 83,5 0,3 0,0 2842,3 1,5
25.02.2021 8,9 19,6 0,6 78,9 0,4 0,0 3144,9 0,0
26.02.2021 5,4 9,3 2,3 88,8 0,9 2,4 423,9 1,6
27.02.2021 5,3 9,9 -1,0 78,2 1,6 0,2 3578,0 -1,7
28.02.2021 6,2 11,6 0,7 69,3 1,6 0,0 3598,4 -0,3
01.03.2021 6,2 13,8 -2,7 72,8 1,6 0,0 3692,3 -3,3
02.03.2021 8,7 16,4 2,7 66,4 1,6 0,0 3641,6 1,8
03.03.2021 6,5 14,1 1,0 81,0 0,4 0,0 2678,8 0,3
04.03.2021 7,6 14,3 2,7 81,8 1,2 0,4 2147,8 2,1
05.03.2021 4,1 7,3 -0,2 69,4 1,7 0,2 2137,5 -0,7
06.03.2021 2,7 8,7 -3,7 57,2 1,4 0,0 4065,7 -4,5
07.03.2021 2,9 11,5 -5,4 58,8 0,8 0,0 4189,6 -6,3
08.03.2021 2,6 7,4 -4,8 71,8 1,0 0,0 2739,3 -5,7
09.03.2021 4,5 7,8 0,7 78,1 1,2 0,0 1845,3 0,4
10.03.2021 7,0 10,6 2,9 74,1 1,0 0,0 1860,0 2,4
11.03.2021 9,8 15,3 6,9 74,4 3,2 4,2 1867,7 6,7
12.03.2021 7,6 10,8 5,1 68,4 3,3 4,0 2512,5 4,8
13.03.2021 7,5 9,6 5,2 76,3 3,5 2,3 2376,3 4,8
14.03.2021 5,5 8,4 3,3 76,8 2,2 1,0 1988,3 3,0
15.03.2021 5,9 9,6 0,0 79,4 2,6 5,2 2578,8 0,0
16.03.2021 5,9 9,5 3,3 74,5 2,0 0,0 2107,9 2,6
17.03.2021 4,1 7,2 -0,7 80,8 1,4 1,1 1896,5 -1,7
18.03.2021 3,4 8,2 -2,0 73,0 1,1 1,0 3207,8 -2,6
19.03.2021 3,1 6,6 0,4 77,5 1,7 1,8 3545,5 -0,4
20.03.2021 3,2 7,9 -1,0 58,3 1,1 0,1 4416,8 -1,6
21.03.2021 6,2 10,0 3,5 69,4 2,2 0,0 2343,1 3,1
22.03.2021 6,0 7,9 4,2 72,6 1,8 0,0 1511,2 4,0
23.03.2021 6,2 10,7 0,7 72,6 0,8 0,0 2085,5 -0,2
24.03.2021 6,4 15,8 -1,8 74,3 0,6 0,0 4898,5 -2,3
25.03.2021 8,3 16,8 -0,6 72,1 1,1 0,0 3647,6 -1,2
26.03.2021 11,1 17,4 3,8 69,0 0,7 0,0 3977,9 2,9
27.03.2021 7,7 11,5 2,8 69,8 3,1 0,5 3810,2 1,7
28.03.2021 9,4 16,0 3,2 66,5 1,4 0,0 4159,1 2,5
29.03.2021 11,6 23,1 2,1 60,2 0,7 0,0 5314,8 1,3
30.03.2021 13,3 24,8 3,4 55,2 0,6 0,0 5498,3 2,4
31.03.2021 14,6 25,8 5,2 56,7 0,6 0,0 5369,3 4,0
01.04.2021 15,3 24,7 6,1 59,9 1,2 0,0 4823,7 4,8
02.04.2021 8,5 14,6 3,3 63,2 1,8 0,0 3559,3 2,0
03.04.2021 8,2 13,6 3,2 54,5 1,5 0,0 4716,1 1,7
04.04.2021 6,3 12,3 0,2 65,3 1,2 0,0 4728,7 -0,5
05.04.2021 3,3 7,8 0,1 76,1 2,9 1,1 1652,7 -0,5
06.04.2021 3,1 7,7 0,4 65,8 3,8 0,2 4022,4 0,1
07.04.2021 3,0 5,2 0,8 68,2 3,8 0,3 2115,2 0,4
08.04.2021 4,6 10,2 -0,3 56,8 1,7 0,0 4612,9 -0,7
09.04.2021 8,1 17,3 -3,3 58,4 1,0 0,2 5290,5 -4,2
10.04.2021 9,8 12,0 8,4 85,3 0,8 2,4 779,7 8,2
11.04.2021 8,1 14,8 4,1 86,3 1,4 2,8 1505,4 4,0
12.04.2021 4,6 9,0 0,0 75,6 1,5 0,7 3643,8 -0,5
13.04.2021 4,0 10,8 -2,9 69,9 1,3 0,0 5586,8 -3,7
14.04.2021 4,7 10,6 -0,5 65,5 1,2 0,0 3922,8 -1,2
15.04.2021 4,9 10,8 -1,5 64,4 1,4 0,0 4808,2 -2,7
16.04.2021 5,7 9,0 2,0 65,7 1,4 0,0 3370,2 1,5
17.04.2021 7,8 11,9 2,5 59,9 1,5 0,0 4500,4 1,7
18.04.2021 8,9 13,0 6,3 76,9 1,0 5,3 2736,5 6,2
19.04.2021 10,2 14,8 5,3 79,5 1,1 1,0 4194,9 4,6
20.04.2021 10,4 19,0 1,4 69,9 0,6 0,0 6561,6 0,3
21.04.2021 11,6 19,7 3,8 68,3 1,0 1,1 5000,8 2,7
22.04.2021 9,5 15,5 4,5 56,0 1,5 0,0 6619,2 3,9
23.04.2021 9,6 17,7 1,1 58,2 1,1 0,0 7052,6 0,0
24.04.2021 10,4 17,4 1,0 57,4 1,6 0,0 6889,3 0,0
25.04.2021 9,5 15,9 2,3 53,5 2,1 0,0 7174,5 1,3
26.04.2021 10,2 16,1 4,5 41,1 2,3 0,0 7375,7 3,9
27.04.2021 11,6 18,5 5,0 39,2 2,1 0,0 7201,8 4,5
28.04.2021 13,4 21,5 7,1 53,2 1,5 9,4 6070,8 5,4
29.04.2021 11,8 17,4 4,6 69,9 2,4 2,1 6256,1 3,5
30.04.2021 7,7 11,9 1,9 69,9 0,8 0,0 3107,4 1,0
01.05.2021 10,0 15,0 2,6 64,1 1,0 0,0 4243,7 1,9
02.05.2021 9,0 12,7 2,1 56,8 2,2 0,0 4793,8 0,5
03.05.2021 8,8 15,1 -0,1 60,4 1,2 0,0 5938,7 -1,0
04.05.2021 10,3 13,7 6,4 66,0 3,1 0,1 1809,0 5,0
05.05.2021 8,1 12,3 5,0 69,3 2,8 1,5 4878,4 4,6
06.05.2021 7,2 11,2 2,3 82,3 1,2 7,0 2549,4 1,5
07.05.2021 7,8 12,5 2,3 70,3 2,1 0,6 5630,2 1,3
08.05.2021 9,9 18,2 -0,5 64,5 1,1 0,0 5999,8 -1,3
09.05.2021 17,8 29,2 5,4 60,7 1,2 0,0 7012,7 4,4
10.05.2021 15,7 20,2 12,9 80,2 0,8 8,7 1337,7 11,8
11.05.2021 13,7 16,0 12,1 92,3 1,1 2,1 1984,0 11,9
12.05.2021 13,5 18,4 8,4 78,8 1,3 3,6 3630,4 7,6
13.05.2021 12,9 20,5 6,0 75,4 1,2 0,0 6314,1 5,3
14.05.2021 13,5 18,7 6,5 67,6 1,1 0,2 5020,0 5,8
15.05.2021 12,0 15,0 9,0 76,1 1,4 2,4 3303,7 8,5
16.05.2021 12,1 18,7 8,4 81,1 1,6 9,6 4996,9 7,8
17.05.2021 12,0 16,1 8,8 83,0 1,7 6,2 4355,0 8,3
18.05.2021 12,2 15,8 9,2 76,1 2,0 0,3 5595,5 8,6
19.05.2021 12,2 17,9 6,4 72,0 1,8 0,0 6643,1 5,9
20.05.2021 13,4 18,0 8,6 69,0 1,1 0,0 4911,0 8,2
21.05.2021 14,3 18,2 9,1 63,4 2,2 7,3 5012,4 8,9
22.05.2021 12,3 16,5 8,6 70,3 2,6 3,2 4193,2 8,3
23.05.2021 12,5 17,0 7,2 67,9 1,9 0,2 5321,4 6,2
24.05.2021 11,9 20,9 4,7 74,4 1,4 0,6 5020,0 4,0
25.05.2021 10,4 14,9 8,7 77,1 2,4 6,4 2553,9 8,6
26.05.2021 10,9 14,1 7,5 83,6 1,6 4,0 2351,4 6,4
27.05.2021 11,4 14,6 6,1 79,7 1,9 0,5 2701,2 5,3
28.05.2021 13,6 19,8 7,5 69,7 0,9 0,0 5593,0 6,9
29.05.2021 15,2 21,5 5,9 60,3 1,1 0,0 6974,9 4,9
30.05.2021 16,5 22,7 7,4 56,8 1,8 0,0 8473,9 6,6
31.05.2021 16,9 24,3 6,8 54,8 1,1 0,0 8480,3 5,9
01.06.2021 18,7 25,6 9,2 49,8 1,9 0,0 8583,5 8,1
02.06.2021 20,7 29,7 10,0 51,9 1,0 0,0 8331,9 8,8
03.06.2021 21,2 28,7 14,2 68,9 0,8 0,0 6722,6 13,6
04.06.2021 21,8 28,9 15,9 74,3 0,9 24,1 6702,0 15,2
05.06.2021 18,6 23,8 14,6 88,2 0,9 13,0 4357,0 14,3
06.06.2021 17,7 21,0 15,6 84,0 1,7 0,1 4819,4 15,6
07.06.2021 17,6 21,1 15,3 87,0 0,8 22,2 2288,8 15,3
08.06.2021 19,9 25,0 15,8 78,2 0,7 0,0 4560,9 15,4
09.06.2021 21,4 27,6 15,0 71,7 0,8 0,0 7530,7 14,4
10.06.2021 22,2 28,7 14,9 64,9 0,8 0,1 7117,9 14,4
11.06.2021 22,7 30,1 13,9 62,4 0,7 0,0 8027,7 13,0
12.06.2021 20,6 26,2 15,7 69,1 1,5 0,0 5590,8 14,8
13.06.2021 18,6 26,2 11,5 60,7 0,8 0,0 8628,7 10,5
14.06.2021 21,0 29,4 10,2 57,0 1,0 0,0 8639,9 9,4
15.06.2021 22,8 30,3 12,7 62,5 0,7 0,0 7434,3 11,8
16.06.2021 25,3 32,7 17,3 61,0 0,8 0,0 7395,0 16,4
17.06.2021 26,5 34,2 17,4 60,6 0,7 0,0 7928,5 16,3
18.06.2021 27,3 35,2 17,6 62,9 0,6 0,8 6454,7 16,7
19.06.2021 26,9 33,7 18,4 63,4 0,8 0,0 8014,9 17,7
20.06.2021 25,2 29,8 19,3 65,3 1,3 5,5 6081,3 19,3
21.06.2021 21,0 27,4 16,8 74,0 1,5 0,1 6238,9 16,7
22.06.2021 16,9 19,4 14,1 84,6 0,8 3,6 2616,5 13,8
23.06.2021 19,8 25,8 14,3 78,1 0,7 0,0 5237,8 13,9
24.06.2021 17,7 19,8 16,2 90,6 0,6 14,7 1863,3 16,1
25.06.2021 18,5 23,1 13,1 79,0 0,9 3,1 5061,5 12,5
26.06.2021 20,3 28,5 11,5 68,1 0,6 0,0 7975,3 10,9
27.06.2021 22,8 28,5 16,2 65,5 1,1 0,0 5707,3 15,7
28.06.2021 23,5 30,3 16,1 70,1 0,7 0,2 6341,9 15,4
29.06.2021 19,5 27,6 14,0 84,9 0,7 28,6 4683,2 13,5
30.06.2021 16,9 20,5 13,0 82,5 1,2 2,1 4163,6 12,5
01.07.2021 16,2 18,2 14,6 79,5 1,2 0,1 2457,0 14,4
02.07.2021 18,9 26,0 12,4 70,2 0,8 0,0 6940,0 12,1
03.07.2021 20,9 28,7 12,3 69,5 0,5 0,0 7752,7 11,7
04.07.2021 19,6 25,1 14,3 81,9 0,6 3,0 3908,8 13,7
05.07.2021 18,5 23,1 13,7 86,9 0,7 1,5 3288,3 13,1
06.07.2021 18,0 20,4 13,9 87,8 0,6 5,6 1926,2 13,2
07.07.2021 19,5 26,9 13,8 74,8 0,5 0,0 7173,8 13,5
08.07.2021 18,5 24,7 13,5 82,4 0,7 0,0 3269,3 13,1
09.07.2021 18,4 24,6 13,9 82,6 0,9 1,4 3573,1 13,4
10.07.2021 19,8 28,5 11,7 76,1 0,6 7,2 6253,0 11,1
11.07.2021 19,4 25,3 15,8 80,7 0,7 0,1 4927,9 15,3
12.07.2021 21,1 27,6 13,4 75,6 0,9 1,2 5156,1 12,9
13.07.2021 18,8 22,7 16,2 92,9 0,5 12,1 1719,5 16,1
14.07.2021 16,9 18,3 16,0 90,5 0,7 3,6 1113,5 16,0
15.07.2021 19,2 25,4 15,4 82,2 0,6 1,1 4451,1 15,1
16.07.2021 19,5 24,4 14,9 85,7 1,0 3,0 4832,4 14,5
17.07.2021 21,3 27,9 15,6 78,3 1,1 0,0 4952,5 15,2
18.07.2021 22,1 29,3 13,6 68,8 0,9 0,0 7761,7 12,8
19.07.2021 20,6 27,2 14,0 72,2 0,8 0,0 6041,9 13,2
20.07.2021 19,2 26,4 11,2 66,8 0,7 0,0 6571,8 10,5
21.07.2021 20,5 27,5 11,3 58,2 0,9 0,0 7752,3 10,4
22.07.2021 20,4 28,4 11,5 65,8 0,7 0,0 7309,2 10,8
23.07.2021 21,3 29,5 12,1 65,9 0,6 0,0 7008,1 11,4
24.07.2021 20,9 26,1 15,5 74,7 0,9 1,3 4003,3 14,9
25.07.2021 20,6 28,6 14,7 77,7 0,5 0,0 5211,5 14,3
26.07.2021 21,4 28,1 13,6 71,3 0,9 0,0 5461,7 13,0
27.07.2021 20,5 26,0 15,2 74,7 0,7 7,2 3718,5 14,8
28.07.2021 19,3 24,5 14,0 79,5 1,0 0,9 4011,3 13,4
29.07.2021 18,7 24,1 12,7 69,0 1,3 0,0 5680,4 12,3
30.07.2021 20,2 27,7 10,3 65,7 1,0 0,0 6790,8 9,5
31.07.2021 19,5 24,0 15,0 61,2 1,6 0,0 6081,9 14,3
01.08.2021 18,7 24,6 14,1 69,9 1,0 0,6 5312,1 13,7
02.08.2021 16,9 23,2 11,9 79,2 0,7 1,6 5034,4 11,2
03.08.2021 16,1 22,6 13,0 89,4 0,5 21,1 3065,9 12,7
04.08.2021 17,1 21,9 12,3 84,6 0,4 0,0 4063,4 11,9
05.08.2021 18,7 26,0 11,6 81,3 0,4 2,2 5066,4 11,0
06.08.2021 18,2 23,0 12,8 80,4 1,3 4,8 4263,9 12,3
07.08.2021 17,3 22,8 12,2 85,8 0,5 1,4 2402,2 11,7
08.08.2021 16,8 22,0 10,5 77,3 1,2 1,0 5144,1 9,8
09.08.2021 17,0 24,3 9,3 73,8 0,7 0,0 5284,9 8,9
10.08.2021 18,9 25,5 12,7 74,2 0,8 0,0 4707,8 12,1
11.08.2021 20,6 29,1 12,7 73,7 0,4 0,0 6092,9 12,1
12.08.2021 21,8 31,1 13,8 73,5 0,3 0,0 5095,5 13,2
13.08.2021 22,2 31,2 15,6 79,6 0,4 2,0 4755,0 14,9
14.08.2021 22,6 32,4 13,7 70,2 0,6 0,0 6857,0 13,0
15.08.2021 22,1 30,8 13,2 66,0 0,5 0,0 6239,3 12,3
16.08.2021 17,9 23,5 12,2 74,0 1,7 3,4 3417,1 11,8
17.08.2021 14,6 18,7 10,4 78,0 1,2 2,9 3022,0 9,7
18.08.2021 17,9 21,8 14,2 77,6 1,2 0,0 2787,8 14,1
19.08.2021 19,1 22,0 16,2 78,2 1,0 0,0 2427,4 16,1
20.08.2021 19,5 27,1 13,3 74,9 0,6 0,0 5264,4 12,2
21.08.2021 20,6 28,8 12,6 74,9 0,5 1,0 5693,6 12,0
22.08.2021 18,6 24,2 12,7 85,2 0,7 2,9 3238,6 12,0
23.08.2021 17,4 25,1 11,9 82,7 0,6 0,0 3850,9 11,0
24.08.2021 16,6 22,4 10,2 71,2 1,1 0,0 5005,8 9,0
25.08.2021 18,6 25,4 9,6 62,8 0,9 0,0 6310,8 8,9
26.08.2021 17,6 21,8 13,5 68,4 1,5 0,5 4140,4 13,0
27.08.2021 15,0 19,7 8,7 79,3 1,2 0,6 2434,8 8,0
28.08.2021 15,5 20,2 11,3 82,9 0,6 2,2 2982,8 10,8
29.08.2021 15,4 16,9 14,0 91,5 0,9 7,1 858,4 13,8
30.08.2021 17,2 21,8 12,7 83,2 0,8 1,1 1995,8 12,2
31.08.2021 16,6 22,4 11,9 79,2 0,8 0,1 3659,9 11,2
01.09.2021 15,9 24,6 9,4 78,4 0,5 0,0 4721,0 8,6
02.09.2021 16,8 25,7 7,0 74,5 0,9 0,0 5869,2 6,2
03.09.2021 19,1 27,8 10,0 69,7 0,8 0,0 5866,5 9,1
04.09.2021 19,6 29,0 9,1 68,8 0,7 0,0 5566,6 8,1
05.09.2021 20,2 29,5 11,3 68,3 0,7 0,0 5508,9 10,6
06.09.2021 19,9 29,7 10,6 70,7 0,4 0,0 5266,5 9,7
07.09.2021 19,7 28,2 11,8 68,9 0,6 0,0 4440,6 11,0
08.09.2021 21,2 28,6 14,3 62,8 1,2 0,0 5377,0 13,2
09.09.2021 20,0 27,9 12,4 76,1 0,6 0,0 4377,8 11,6
10.09.2021 20,0 25,3 17,0 84,0 0,5 6,1 2666,5 16,6
11.09.2021 18,7 24,5 12,7 85,7 0,4 0,1 2494,3 11,6
12.09.2021 17,5 25,6 11,0 77,2 0,5 0,0 4561,2 10,3
13.09.2021 17,2 25,8 8,9 76,4 0,5 0,0 4826,5 7,9
14.09.2021 18,8 26,5 11,0 80,0 0,3 0,0 3878,3 10,0
15.09.2021 19,1 23,0 15,5 92,1 0,5 3,9 1501,6 14,9
16.09.2021 17,0 19,8 13,0 81,1 0,8 1,3 2774,7 12,7
17.09.2021 15,4 23,4 9,9 84,0 0,3 0,0 2546,7 9,2
18.09.2021 16,3 24,8 9,0 78,8 0,7 0,0 4286,8 8,1
19.09.2021 15,9 22,0 12,3 73,4 1,5 0,0 4083,9 11,8
20.09.2021 14,3 17,2 12,1 69,3 1,1 0,0 1891,3 12,0
21.09.2021 13,9 19,9 7,1 63,2 0,8 0,0 4313,9 6,4
22.09.2021 12,3 22,9 5,2 79,8 0,3 0,0 4034,0 4,3
23.09.2021 15,1 26,2 5,5 72,9 0,8 0,0 4654,8 4,3
24.09.2021 15,3 21,9 8,3 79,3 0,5 0,0 2679,0 7,4
25.09.2021 16,2 26,1 7,4 75,7 0,4 0,0 4488,4 6,5
26.09.2021 16,2 21,5 10,5 90,9 0,2 6,6 1594,2 9,6
27.09.2021 17,1 22,0 13,5 89,7 0,5 1,9 2066,7 13,3
28.09.2021 13,2 20,4 8,1 83,0 0,2 0,1 2817,8 7,5
29.09.2021 12,2 17,1 6,9 81,8 0,9 4,4 2080,1 5,9
30.09.2021 10,0 17,2 2,3 79,4 0,5 0,0 3705,6 1,4
01.10.2021 11,2 20,5 3,7 80,4 0,4 0,0 3864,9 2,8
02.10.2021 15,9 21,5 9,7 75,7 0,7 0,0 2855,0 9,4
03.10.2021 17,6 21,9 13,9 74,4 1,1 0,1 620,6 13,6
04.10.2021 13,3 17,2 10,3 87,6 0,5 0,6 1530,5 9,8
05.10.2021 13,0 17,7 8,6 89,3 0,7 3,3 1827,7 8,0
06.10.2021 12,0 14,4 8,8 81,6 1,1 1,9 1589,4 8,2
07.10.2021 12,1 18,3 6,4 86,2 0,5 3,2 2730,5 5,6
08.10.2021 11,5 18,8 3,6 81,9 0,9 0,0 2890,6 2,8
09.10.2021 13,0 19,5 8,7 69,4 1,3 0,0 3699,3 7,4
10.10.2021 8,9 17,4 1,1 76,7 0,5 0,0 3493,5 0,2
11.10.2021 7,5 15,5 1,9 90,1 0,3 0,0 1311,3 1,0
12.10.2021 9,2 12,7 2,7 92,2 0,6 5,2 892,5 1,8
13.10.2021 8,1 15,0 2,2 88,4 0,5 0,1 1821,2 1,1
14.10.2021 10,2 17,1 4,7 87,4 0,3 0,0 1687,6 3,8
15.10.2021 8,6 16,0 2,5 89,6 0,4 0,1 1678,4 1,6
16.10.2021 8,1 16,6 0,2 82,2 0,4 0,0 3227,9 -0,6
17.10.2021 8,3 15,5 3,1 84,2 0,4 0,0 2238,9 2,1
18.10.2021 6,7 11,3 1,9 94,3 0,2 0,0 750,3 1,2
19.10.2021 8,4 14,8 3,9 97,4 0,2 8,0 751,9 3,3
20.10.2021 12,2 19,7 4,1 91,3 0,7 0,3 1012,1 3,5
21.10.2021 12,1 15,6 3,0 73,8 3,1 5,2 1847,4 1,9
22.10.2021 7,8 12,8 0,6 77,8 1,5 0,1 2550,1 -0,4
23.10.2021 6,8 14,2 -0,1 86,8 0,2 0,0 1622,2 -1,0
24.10.2021 6,7 16,0 -0,3 82,4 0,8 0,0 2900,4 -1,1
25.10.2021 4,8 13,6 -1,1 92,7 0,2 0,1 1713,7 -1,8
26.10.2021 9,9 17,1 3,6 86,6 0,5 0,0 1794,5 2,8
27.10.2021 9,3 17,1 2,9 89,2 0,2 0,0 1901,8 2,0
28.10.2021 6,0 8,4 2,1 97,6 0,2 0,0 614,6 0,9
29.10.2021 5,8 9,4 2,6 96,0 0,4 0,0 926,0 1,9
30.10.2021 6,4 8,4 1,9 95,8 0,6 1,8 490,6 1,6
31.10.2021 11,6 16,4 5,9 93,5 0,4 0,8 1333,4 5,2
01.11.2021 9,8 13,7 3,2 91,8 0,5 3,5 847,5 2,3
02.11.2021 7,7 11,7 4,6 95,8 0,3 4,9 1060,0 4,1
03.11.2021 7,2 9,1 4,3 98,0 0,7 6,2 427,1 3,7
04.11.2021 7,7 9,2 6,5 88,9 1,1 0,3 607,2 6,0
05.11.2021 6,9 12,5 2,4 88,7 0,4 0,0 1160,2 1,7
06.11.2021 4,9 8,0 0,9 97,0 0,5 0,1 1163,8 0,0
07.11.2021 6,5 9,1 3,5 91,1 1,3 0,0 599,5 2,9
08.11.2021 6,5 12,8 1,5 89,7 0,3 0,0 1279,6 0,6
09.11.2021 6,3 13,0 0,5 82,9 0,7 0,1 2053,5 -0,5
10.11.2021 2,4 8,3 -1,2 90,8 0,3 0,0 1392,2 -1,9
11.11.2021 1,4 3,0 -0,8 98,8 0,4 0,2 598,6 -1,3
12.11.2021 1,8 2,3 1,3 99,6 0,5 0,2 301,6 1,4
13.11.2021 4,1 6,6 1,9 98,1 0,5 2,2 360,4 2,0
14.11.2021 8,2 10,3 4,9 90,7 1,3 0,0 634,3 3,8
15.11.2021 8,0 8,6 7,4 83,6 1,2 0,0 233,0 7,3
16.11.2021 6,6 7,3 5,5 90,7 0,5 0,2 177,7 5,3
17.11.2021 6,5 8,1 3,7 87,5 0,8 0,1 605,4 3,0
18.11.2021 5,2 10,4 0,1 89,7 0,5 0,0 1297,5 -0,6
19.11.2021 8,1 10,4 5,6 89,8 0,7 0,0 598,8 5,3
20.11.2021 7,9 10,7 4,2 90,9 0,4 0,0 709,4 3,3
21.11.2021 6,0 6,8 5,6 95,5 0,5 1,9 367,8 5,5
22.11.2021 4,6 8,9 -0,6 83,7 0,8 0,0 1012,0 -1,6
23.11.2021 2,4 9,5 -4,4 80,7 0,2 0,0 1665,0 -5,3
24.11.2021 4,2 8,1 1,2 84,3 0,7 0,0 679,7 -0,4
25.11.2021 2,6 4,3 0,5 81,7 0,4 0,0 335,2 0,0
26.11.2021 2,4 4,6 -1,1 88,7 1,0 2,5 385,5 -1,7
27.11.2021 3,2 6,2 1,0 87,1 1,0 1,1 779,8 0,3
28.11.2021 2,1 3,8 0,0 93,1 0,4 0,3 285,0 -0,4
29.11.2021 2,6 4,6 0,0 85,4 1,7 0,2 602,8 -0,9
30.11.2021 4,8 7,2 2,3 86,8 2,9 4,2 191,0 2,2
01.12.2021 7,1 9,0 5,4 84,2 2,4 0,7 338,4 4,2
02.12.2021 3,9 6,6 1,3 85,0 1,5 1,7 669,3 0,6
03.12.2021 0,6 3,3 -4,6 84,8 1,0 0,0 771,5 -5,4
04.12.2021 2,5 5,8 0,1 93,5 0,9 7,4 305,5 0,0
05.12.2021 4,0 7,1 1,8 87,5 0,6 0,2 795,7 0,8
06.12.2021 2,6 6,3 -0,7 89,7 0,6 0,7 845,7 -1,4
07.12.2021 3,9 7,0 0,7 82,1 1,4 2,8 983,7 0,1